首页
METAR-TAF:

METAR-TAF

机场 :

里斯本, 葡萄牙

温贝托·德尔加多机场

纬度: 38-46N, 经度: 009-08W, 海拔: 114米

当前天气观测

该预报发布于42分钟前的01:00 UTC
风速20节,风向北转西北
温度 11°C
湿度 87%
气压 1021 hPa
能见度10公里或以上
少量云层高于800英尺

METAR: LPPT 190100Z 33020KT 9999 FEW008 11/09 Q1021

时间: 01:42 (01:42 UTC)

预报

该预报发布于42分钟前的01:00 UTC
预报有效从19日的 01点(UTC)到 20日的 06点(UTC)
风速17节,风向
能见度10公里或以上
散云层高于1000英尺
几率 40% :
短暂存在
从 19日的 01点(UTC)到 19日的 09点(UTC)
风速22节,风向,有时为32节阵风
多云层高于800英尺
成为
从 19日的 09点(UTC)到 19日的 12点(UTC)
风速12节,风向北转东北
能见度10公里或以上
1500米以下无云,无积雨云
成为
从 19日的 21点(UTC)到 19日的 23点(UTC)
风速7节,风向北转西北
成为
从 20日的 00点(UTC)到 20日的 02点(UTC)
风速3节,风向多变
能见度10公里或以上
少量云层高于800英尺
几率 30% :
短暂存在
从 20日的 02点(UTC)到 20日的 06点(UTC)
能見度: 3000
散云层高于300英尺
轻雾

TAF: LPPT 190100Z 1901/2006 35017KT 9999 SCT010 PROB40 TEMPO 1901/1909 36022G32KT BKN008 BECMG 1909/1912 02012KT CAVOK BECMG 1921/1923 33007KT BECMG 2000/2002 VRB03KT 9999 FEW008 PROB30 TEMPO 2002/2006 3000 BR SCT003

超过4000个机场的气象观测和天气预报(METAR&TAF报告)。

可查询的气象台以黄色和红色小点在地图上表示。

将鼠标移到小点上方,可查看气象台名称。

然后点击查看天气观测和预报。

如需切换地图:点击带黑十字的绿色按钮放大地图;点击带横线的绿色按钮缩小地图;或者点击绿色箭头查看邻近地区的地图。


METAR-TAF: